Track Мирон Анатолий

Time Latitude Longitude Accuracy (66% radius in meters) Altitude (meters) Speed (km/hour) Bearing (degrees) Battery (%) GPS flag
05:24:40 57.150641 39.348838 6.5 109 0 0 31 1 delete
05:24:19 57.150629 39.348828 8.5 105.30000305176 0.1799999922514 137.40600585938 31 1 delete
05:14:10 57.150522 39.348163 10.5 106.19999694824 0.5799999833107 305.67810058594 32 1 delete
05:13:49 57.150550 39.348315 16 88.099998474121 0.1499999910593 108.60534667969 32 1 delete
05:03:40 57.150540 39.348078 8 120.5 0 0 32 1 delete
05:03:19 57.150478 39.348060 11 116.69999694824 0.31000000238419 203.94470214844 32 1 delete
04:53:06 57.150393 39.347985 27.5 106.09999847412 0.75999999046326 1.571044921875 33 1 delete
04:53:01 57.150327 39.347947 28 91.199996948242 1.4900000095367 328.72741699219 33 1 delete
04:52:56 57.150247 39.348055 32 71.599998474121 0.64999997615814 343.20190429688 33 1 delete
04:42:35 57.150593 39.348289 10.5 117.40000152588 0 0 33 1 delete
04:42:20 57.150552 39.348312 13 108 0 0 33 1 delete
04:42:14 57.150640 39.348403 20 119.5 0.81999999284744 10.079956054688 33 1 delete
04:32:04 57.150453 39.348583 16.5 108.69999694824 0.89999997615814 252.52624511719 33 1 delete
04:31:43 57.150534 39.348836 18 59.799999237061 0.20999999344349 230.24047851562 33 1 delete
04:21:29 57.150430 39.348250 14 98.5 0.43999999761581 359.79125976562 33 1 delete
04:21:19 57.150388 39.348256 20 98.199996948242 0.55000001192093 202.68676757812 33 1 delete
04:21:13 57.150551 39.348422 18 106.40000152588 1.3500000238419 110.11047363281 33 1 delete
04:10:58 57.150436 39.348291 8.5 68.099998474121 0.47999998927116 326.68395996094 34 1 delete
04:10:43 57.150440 39.348349 11 62.900001525879 0 0 34 1 delete
04:00:23 57.150346 39.348351 10.5 63.299999237061 0 0 34 1 delete
04:00:18 57.150337 39.348357 12 62.700000762939 0.0099999997764826 157.39562988281 34 1 delete
04:00:07 57.150283 39.348225 15.5 46.900001525879 0.23999999463558 100.77758789062 34 1 delete
03:49:52 57.150593 39.348210 8 103 0 0 36 1 delete
03:49:31 57.150590 39.348224 23 97.5 0.68999999761581 135.2197265625 36 1 delete
03:39:22 57.150485 39.348253 9.5 84.800003051758 0 0 36 1 delete
03:39:01 57.150486 39.348306 17.5 93.400001525879 1.2099999189377 179.09912109375 36 1 delete
03:28:40 57.150582 39.348107 8 128.89999389648 0 0 36 1 delete
03:28:30 57.150582 39.348106 9 129.10000610352 0.029999999329448 124.77172851562 36 1 delete
03:28:25 57.150484 39.348095 18 128.39999389648 0.070000000298023 160.83435058594 36 1 delete
03:18:10 57.150471 39.348264 9.5 110.19999694824 0.17000000178814 198.11096191406 36 1 delete
03:17:49 57.150424 39.348273 11.5 115.30000305176 0.62000000476837 160.13122558594 36 1 delete
03:07:40 57.149727 39.348852 2 105.19999694824 3.0699999332428 143.30017089844 37 1 delete
03:07:35 57.149820 39.348598 2 106.69999694824 3.9399998188019 109.44580078125 37 1 delete
03:07:30 57.149878 39.348276 2.5 105.09999847412 4.1100001335144 110.84106445312 37 1 delete
03:07:25 57.149912 39.347977 5 105.90000152588 3.3499999046326 133.45642089844 37 1 delete
03:07:19 57.150118 39.347854 9.5 100 1.8099999427795 181.20849609375 37 1 delete
02:57:09 57.048159 39.293897 1.5 117.5 24.809999465942 21.763916015625 37 1 delete
02:57:04 57.047083 39.293087 1.5 115.80000305176 26.75 22.159423828125 37 1 delete
02:56:59 57.045966 39.292235 1.5 112.59999847412 25.989999771118 22.274780273438 37 1 delete
02:56:54 57.044882 39.291426 1.5 110.90000152588 25.090000152588 22.241821289062 37 1 delete
02:56:49 57.043812 39.290649 2 109.30000305176 24.199998855591 22.164916992188 37 1 delete
02:56:43 57.042734 39.289870 11 112.19999694824 23.659999847412 22.703247070312 37 1 delete
02:46:40 56.983839 39.289738 1.5 159.89999389648 15.069999694824 326.83227539062 37 1 delete
02:46:35 56.983276 39.290398 2 159.89999389648 15.39999961853 327.28271484375 37 1 delete
02:46:30 56.982669 39.291115 1.5 160.89999389648 16.440000534058 327.36511230469 37 1 delete
02:46:25 56.982049 39.291838 2 160.60000610352 16.909999847412 328.85925292969 37 1 delete
02:46:19 56.981321 39.292590 8 168.30000305176 16.279998779297 331.94091796875 37 1 delete
02:36:06 56.971605 39.416742 1.5 175.69999694824 11.779999732971 289.7314453125 37 1 delete
02:36:01 56.971470 39.417731 2 178.80000305176 12.119999885559 279.16809082031 37 1 delete
02:35:56 56.971403 39.418718 2 182.39999389648 12.319999694824 275.74035644531 37 1 delete